Back to Top

Language: 

My Weather Underground Personal Weather Station Historical Data with Graphs...

Delerius Weather Station Historical Data
Daily Summary for January 7, 2018 Units:  Metric    English   Both
« Previous Day
Next Day »
Daily Weekly Monthly Yearly Custom
  High: Low: Average:
Temperature: 5.2 °C -3.2 °C 1.3 °C
Dew Point: 1.4 °C -4.1 °C -0.4 °C
Humidity: 94 % 73 % 89 %
Wind Speed: 12.9 km/h 0 km/h 4.5 km/h
Wind Gust: 24.1 km/h - -
Wind:- - SE
Pressure: 1032.4 hPa 1026 hPa -
Precipitation: 0 mm    
Historical Graphs
 
 
Tabular Data for January 7, 2018
Time Temperature Dew Point Pressure Wind Wind Speed Wind Gust Humidity Rainfall Rate (Hourly) solar Conditions
00:04 1.4 °C 0.1 °C 1026.3 hPa NNW 6.4 km/h 12.9 km/h 91 % 0 mm 0 W/m2
00:07 1.4 °C 0.1 °C 1026 hPa NNW 8 km/h 16.1 km/h 91 % 0 mm 0 W/m2
00:12 1.4 °C 0.1 °C 1026 hPa NNW 9.7 km/h 14.5 km/h 91 % 0 mm 0 W/m2
00:22 1.4 °C 0.1 °C 1026.3 hPa NNW 6.4 km/h 9.7 km/h 91 % 0 mm 0 W/m2
00:27 1.4 °C 0.2 °C 1026 hPa North 6.4 km/h 16.1 km/h 92 % 0 mm 0 W/m2
00:33 1.4 °C 0.2 °C 1026 hPa North 6.4 km/h 11.3 km/h 92 % 0 mm 0 W/m2
00:38 1.4 °C 0.2 °C 1026 hPa North 4.8 km/h 12.9 km/h 92 % 0 mm 0 W/m2
00:43 1.4 °C 0.2 °C 1026.3 hPa North 8 km/h 14.5 km/h 92 % 0 mm 0 W/m2
00:46 1.5 °C 0.3 °C 1026.3 hPa NNW 8 km/h 14.5 km/h 92 % 0 mm 0 W/m2
00:48 1.4 °C 0.2 °C 1026.3 hPa North 3.2 km/h 9.7 km/h 92 % 0 mm 0 W/m2
00:51 1.4 °C 0.2 °C 1026.3 hPa North 4.8 km/h 11.3 km/h 92 % 0 mm 0 W/m2
00:57 1.4 °C 0.2 °C 1026.3 hPa NNE 1.6 km/h 4.8 km/h 92 % 0 mm 0 W/m2
01:00 1.4 °C 0.2 °C 1026.3 hPa North 4.8 km/h 9.7 km/h 92 % 0 mm 0 W/m2
01:05 1.5 °C 0.3 °C 1026.6 hPa NNW 1.6 km/h 8 km/h 92 % 0 mm 0 W/m2
01:10 1.4 °C 0.2 °C 1026.6 hPa NNW 1.6 km/h 8 km/h 92 % 0 mm 0 W/m2
01:15 1.4 °C 0.2 °C 1026.6 hPa North 3.2 km/h 11.3 km/h 92 % 0 mm 0 W/m2
01:20 1.4 °C 0.2 °C 1026.6 hPa NNE 1.6 km/h 4.8 km/h 92 % 0 mm 0 W/m2
01:22 1.4 °C 0.2 °C 1026.6 hPa NNW 1.6 km/h 6.4 km/h 92 % 0 mm 0 W/m2
01:25 1.3 °C 0.2 °C 1026.6 hPa North 3.2 km/h 9.7 km/h 92 % 0 mm 0 W/m2
01:29 1.4 °C 0.2 °C 1026.6 hPa NNE 3.2 km/h 9.7 km/h 92 % 0 mm 0 W/m2
01:34 1.3 °C 0.2 °C 1026.6 hPa North 3.2 km/h 8 km/h 92 % 0 mm 0 W/m2
01:45 1.3 °C 0.2 °C 1027 hPa North 8 km/h 14.5 km/h 92 % 0 mm 0 W/m2
01:50 1.3 °C 0.2 °C 1027 hPa NNW 4.8 km/h 9.7 km/h 92 % 0 mm 0 W/m2
01:54 1.3 °C 0.2 °C 1027 hPa North 3.2 km/h 9.7 km/h 92 % 0 mm 0 W/m2
01:59 1.3 °C 0.2 °C 1027 hPa NNW 4.8 km/h 9.7 km/h 92 % 0 mm 0 W/m2
02:04 1.3 °C 0.2 °C 1027 hPa North 9.7 km/h 16.1 km/h 92 % 0 mm 0 W/m2
02:09 1.4 °C 0.2 °C 1027 hPa North 11.3 km/h 19.3 km/h 92 % 0 mm 0 W/m2
02:12 1.5 °C 0.3 °C 1027.3 hPa North 9.7 km/h 14.5 km/h 92 % 0 mm 0 W/m2
02:17 1.6 °C 0.4 °C 1027.3 hPa North 6.4 km/h 12.9 km/h 92 % 0 mm 0 W/m2
02:22 1.6 °C 0.4 °C 1027.3 hPa North 9.7 km/h 16.1 km/h 92 % 0 mm 0 W/m2
02:27 1.6 °C 0.4 °C 1027.3 hPa NNW 8 km/h 12.9 km/h 92 % 0 mm 0 W/m2
02:32 1.6 °C 0.4 °C 1027.3 hPa North 8 km/h 12.9 km/h 92 % 0 mm 0 W/m2
02:37 1.7 °C 0.6 °C 1027.3 hPa North 6.4 km/h 16.1 km/h 92 % 0 mm 0 W/m2
02:42 1.7 °C 0.6 °C 1027.7 hPa North 8 km/h 12.9 km/h 92 % 0 mm 0 W/m2
02:47 1.7 °C 0.6 °C 1027.7 hPa North 8 km/h 16.1 km/h 92 % 0 mm 0 W/m2
02:52 1.7 °C 0.6 °C 1027.7 hPa North 6.4 km/h 12.9 km/h 92 % 0 mm 0 W/m2
02:57 1.7 °C 0.6 °C 1027.7 hPa North 6.4 km/h 14.5 km/h 92 % 0 mm 0 W/m2
03:02 1.7 °C 0.6 °C 1027.7 hPa North 6.4 km/h 11.3 km/h 92 % 0 mm 0 W/m2
03:07 1.7 °C 0.6 °C 1027.7 hPa North 6.4 km/h 16.1 km/h 92 % 0 mm 0 W/m2
03:12 1.8 °C 0.6 °C 1027.7 hPa North 4.8 km/h 9.7 km/h 92 % 0 mm 0 W/m2
03:17 1.8 °C 0.6 °C 1027.7 hPa North 8 km/h 12.9 km/h 92 % 0 mm 0 W/m2
03:22 1.7 °C 0.6 °C 1028 hPa NNE 1.6 km/h 8 km/h 92 % 0 mm 0 W/m2
03:27 1.7 °C 0.6 °C 1028 hPa North 4.8 km/h 9.7 km/h 92 % 0 mm 0 W/m2
03:30 1.7 °C 0.6 °C 1028 hPa NNW 6.4 km/h 14.5 km/h 92 % 0 mm 0 W/m2
03:35 1.6 °C 0.4 °C 1028 hPa North 9.7 km/h 14.5 km/h 92 % 0 mm 0 W/m2
03:41 1.6 °C 0.4 °C 1028 hPa NNW 9.7 km/h 14.5 km/h 92 % 0 mm 0 W/m2
03:51 1.5 °C 0.3 °C 1028 hPa NNW 8 km/h 16.1 km/h 92 % 0 mm 0 W/m2
03:54 1.4 °C 0.2 °C 1028 hPa North 6.4 km/h 12.9 km/h 92 % 0 mm 0 W/m2
03:59 1.4 °C 0.2 °C 1028 hPa NNW 6.4 km/h 9.7 km/h 92 % 0 mm 0 W/m2
04:02 1.3 °C 0.2 °C 1028 hPa NNW 6.4 km/h 12.9 km/h 92 % 0 mm 0 W/m2
04:07 1.3 °C 0.2 °C 1028 hPa NNW 8 km/h 12.9 km/h 92 % 0 mm 0 W/m2
04:12 1.2 °C 0.1 °C 1028 hPa NNW 6.4 km/h 12.9 km/h 92 % 0 mm 0 W/m2
04:14 1.2 °C 0.1 °C 1028.3 hPa NNW 4.8 km/h 12.9 km/h 92 % 0 mm 0 W/m2
04:19 1.2 °C 0.1 °C 1028 hPa NNW 6.4 km/h 11.3 km/h 92 % 0 mm 0 W/m2
04:24 1.1 °C -0.1 °C 1028 hPa NNW 8 km/h 12.9 km/h 92 % 0 mm 0 W/m2
04:29 1.1 °C -0.1 °C 1028 hPa North 6.4 km/h 12.9 km/h 92 % 0 mm 0 W/m2
04:30 1.1 °C -0.1 °C 1028 hPa North 6.4 km/h 11.3 km/h 92 % 0 mm 0 W/m2
04:35 1.1 °C -0.1 °C 1028 hPa North 6.4 km/h 12.9 km/h 92 % 0 mm 0 W/m2
04:37 1.1 °C 0.1 °C 1028.3 hPa North 8 km/h 12.9 km/h 93 % 0 mm 0 W/m2
04:42 1.2 °C 0.2 °C 1028.3 hPa NE 8 km/h 12.9 km/h 93 % 0 mm 0 W/m2
04:46 1.3 °C 0.3 °C 1028.3 hPa North 8 km/h 12.9 km/h 93 % 0 mm 0 W/m2
04:51 1.3 °C 0.3 °C 1028.3 hPa NNE 4.8 km/h 11.3 km/h 93 % 0 mm 0 W/m2
04:56 1.4 °C 0.4 °C 1028.3 hPa NNE 9.7 km/h 16.1 km/h 93 % 0 mm 0 W/m2
04:57 1.4 °C 0.4 °C 1028.3 hPa NNE 8 km/h 16.1 km/h 93 % 0 mm 0 W/m2
05:02 1.4 °C 0.2 °C 1028.3 hPa North 8 km/h 12.9 km/h 92 % 0 mm 0 W/m2
05:07 1.5 °C 0.3 °C 1028.7 hPa North 9.7 km/h 14.5 km/h 92 % 0 mm 0 W/m2
05:08 1.5 °C 0.3 °C 1028.7 hPa North 9.7 km/h 16.1 km/h 92 % 0 mm 0 W/m2
05:09 1.5 °C 0.3 °C 1028.7 hPa North 11.3 km/h 16.1 km/h 92 % 0 mm 0 W/m2
05:14 1.5 °C 0.3 °C 1028.7 hPa NNE 9.7 km/h 14.5 km/h 92 % 0 mm 0 W/m2
05:15 1.5 °C 0.3 °C 1028.7 hPa NNE 6.4 km/h 14.5 km/h 92 % 0 mm 0 W/m2
05:20 1.6 °C 0.4 °C 1028.7 hPa North 8 km/h 12.9 km/h 92 % 0 mm 0 W/m2
05:23 1.6 °C 0.4 °C 1028.7 hPa North 6.4 km/h 14.5 km/h 92 % 0 mm 0 W/m2
05:28 1.5 °C 0.3 °C 1028.7 hPa North 8 km/h 14.5 km/h 92 % 0 mm 0 W/m2
05:33 1.4 °C 0.2 °C 1028.7 hPa North 11.3 km/h 16.1 km/h 92 % 0 mm 0 W/m2
05:38 1.4 °C 0.2 °C 1029 hPa North 8 km/h 14.5 km/h 92 % 0 mm 0 W/m2
05:40 1.4 °C 0.2 °C 1029 hPa NNE 8 km/h 14.5 km/h 92 % 0 mm 0 W/m2
05:43 1.4 °C 0.2 °C 1029 hPa North 6.4 km/h 12.9 km/h 92 % 0 mm 0 W/m2
05:48 1.3 °C 0.2 °C 1029 hPa North 9.7 km/h 14.5 km/h 92 % 0 mm 0 W/m2
05:53 1.3 °C 0.2 °C 1029 hPa North 9.7 km/h 14.5 km/h 92 % 0 mm 0 W/m2
05:58 1.2 °C 0.1 °C 1029 hPa North 11.3 km/h 14.5 km/h 92 % 0 mm 0 W/m2
06:02 1.3 °C 0.2 °C 1029 hPa North 11.3 km/h 16.1 km/h 92 % 0 mm 0 W/m2
06:08 1.3 °C 0.3 °C 1029.3 hPa NNE 9.7 km/h 16.1 km/h 93 % 0 mm 0 W/m2
06:09 1.3 °C 0.3 °C 1029.3 hPa NNE 8 km/h 12.9 km/h 93 % 0 mm 0 W/m2
06:14 1.3 °C 0.2 °C 1029.3 hPa North 8 km/h 14.5 km/h 92 % 0 mm 0 W/m2
06:19 1.3 °C 0.2 °C 1029.3 hPa North 11.3 km/h 16.1 km/h 92 % 0 mm 0 W/m2
06:25 1.3 °C 0.2 °C 1029.7 hPa North 8 km/h 12.9 km/h 92 % 0 mm 0 W/m2
06:28 1.3 °C 0.2 °C 1029.7 hPa North 9.7 km/h 14.5 km/h 92 % 0 mm 0 W/m2
06:34 1.3 °C 0.2 °C 1029.7 hPa North 9.7 km/h 14.5 km/h 92 % 0 mm 0 W/m2
06:39 1.3 °C 0.2 °C 1029.7 hPa North 9.7 km/h 16.1 km/h 92 % 0 mm 0 W/m2
06:44 1.3 °C 0.2 °C 1029.7 hPa North 9.7 km/h 14.5 km/h 92 % 0 mm 0 W/m2
06:49 1.3 °C 0.2 °C 1029.7 hPa North 8 km/h 12.9 km/h 92 % 0 mm 0 W/m2
06:53 1.3 °C 0.2 °C 1029.7 hPa North 4.8 km/h 11.3 km/h 92 % 0 mm 0 W/m2
06:58 1.3 °C 0.3 °C 1030 hPa NNE 3.2 km/h 9.7 km/h 93 % 0 mm 0 W/m2
07:01 1.3 °C 0.3 °C 1030 hPa NE 1.6 km/h 9.7 km/h 93 % 0 mm 0 W/m2
07:07 1.3 °C 0.3 °C 1030 hPa NE 3.2 km/h 9.7 km/h 93 % 0 mm 0 W/m2
07:13 1.3 °C 0.3 °C 1030 hPa NW 1.6 km/h 6.4 km/h 93 % 0 mm 0 W/m2
07:16 1.3 °C 0.3 °C 1030 hPa NNE 4.8 km/h 9.7 km/h 93 % 0 mm 0 W/m2
07:21 1.3 °C 0.3 °C 1030 hPa NNE 1.6 km/h 6.4 km/h 93 % 0 mm 0 W/m2
07:25 1.3 °C 0.3 °C 1030.4 hPa Calm   3.2 km/h 93 % 0 mm 0 W/m2
07:30 1.3 °C 0.3 °C 1030.4 hPa NE 3.2 km/h 9.7 km/h 93 % 0 mm 0 W/m2
07:35 1.4 °C 0.4 °C 1030.4 hPa Calm   1.6 km/h 93 % 0 mm 0 W/m2
07:40 1.3 °C 0.3 °C 1030.4 hPa Calm   3.2 km/h 93 % 0 mm 0 W/m2
07:45 1.3 °C 0.3 °C 1030.4 hPa North 1.6 km/h 6.4 km/h 93 % 0 mm 0 W/m2
07:50 1.3 °C 0.3 °C 1030.7 hPa North 1.6 km/h 3.2 km/h 93 % 0 mm 0 W/m2
07:55 1.3 °C 0.2 °C 1030.7 hPa North 3.2 km/h 9.7 km/h 92 % 0 mm 0 W/m2
08:00 1.3 °C 0.3 °C 1030.7 hPa NNE 4.8 km/h 9.7 km/h 93 % 0 mm 0 W/m2
08:05 1.3 °C 0.3 °C 1030.7 hPa NNE 3.2 km/h 9.7 km/h 93 % 0 mm 0 W/m2
08:09 1.2 °C 0.1 °C 1030.7 hPa NE 3.2 km/h 9.7 km/h 92 % 0 mm 0 W/m2
08:11 1.2 °C 0.2 °C 1030.7 hPa NNE 4.8 km/h 9.7 km/h 93 % 0 mm 0 W/m2
08:16 1.2 °C 0.2 °C 1031 hPa NNE 1.6 km/h 6.4 km/h 93 % 0 mm 5 W/m2
08:21 1.1 °C -0.1 °C 1031 hPa Calm   6.4 km/h 92 % 0 mm 5 W/m2
08:25 1 °C 0 °C 1031 hPa NNE 1.6 km/h 8 km/h 93 % 0 mm 7 W/m2
08:30 1 °C 0 °C 1030.7 hPa NNE 4.8 km/h 9.7 km/h 93 % 0 mm 9 W/m2
08:34 1 °C 0 °C 1031 hPa Calm   3.2 km/h 93 % 0 mm 11 W/m2
08:39 1 °C 0 °C 1031 hPa NE 4.8 km/h 16.1 km/h 93 % 0 mm 12 W/m2
08:44 1.1 °C 0.1 °C 1031.4 hPa NNE 3.2 km/h 9.7 km/h 93 % 0 mm 14 W/m2
08:49 1.1 °C 0.1 °C 1031.4 hPa NNE 4.8 km/h 9.7 km/h 93 % 0 mm 16 W/m2
08:50 1.1 °C 0.1 °C 1031.4 hPa NNE 4.8 km/h 9.7 km/h 93 % 0 mm 16 W/m2
08:55 1.1 °C 0.1 °C 1031.4 hPa NNE 4.8 km/h 9.7 km/h 93 % 0 mm 18 W/m2
09:00 1.1 °C 0.1 °C 1031.4 hPa Calm     93 % 0 mm 19 W/m2
09:02 1 °C 0 °C 1031.4 hPa Calm   1.6 km/h 93 % 0 mm 19 W/m2
09:07 0.8 °C -0.3 °C 1031.4 hPa NE 1.6 km/h 9.7 km/h 92 % 0 mm 21 W/m2
09:12 0.8 °C -0.2 °C 1031.7 hPa NE 1.6 km/h 8 km/h 93 % 0 mm 23 W/m2
09:17 0.8 °C -0.2 °C 1031.7 hPa NNE 1.6 km/h 8 km/h 93 % 0 mm 23 W/m2
09:19 0.9 °C -0.1 °C 1031.7 hPa NE 6.4 km/h 12.9 km/h 93 % 0 mm 25 W/m2
09:24 1 °C 0 °C 1031.7 hPa Calm   6.4 km/h 93 % 0 mm 28 W/m2
09:26 1 °C 0 °C 1031.7 hPa Calm     93 % 0 mm 28 W/m2
09:31 1.1 °C 0.1 °C 1031.7 hPa NE 4.8 km/h 9.7 km/h 93 % 0 mm 120 W/m2
09:35 1.2 °C 0.3 °C 1031.7 hPa NNE 4.8 km/h 14.5 km/h 94 % 0 mm 125 W/m2
09:40 1.3 °C 0.4 °C 1031.7 hPa NNE 4.8 km/h 11.3 km/h 94 % 0 mm 144 W/m2
09:41 1.4 °C 0.6 °C 1031.7 hPa NNE 6.4 km/h 12.9 km/h 94 % 0 mm 144 W/m2
09:46 1.6 °C 0.6 °C 1032.1 hPa North 6.4 km/h 14.5 km/h 93 % 0 mm 141 W/m2
09:48 1.7 °C 0.7 °C 1032.1 hPa NE 8 km/h 14.5 km/h 93 % 0 mm 144 W/m2
09:53 1.9 °C 0.9 °C 1032.1 hPa ENE 3.2 km/h 11.3 km/h 93 % 0 mm 151 W/m2
09:54 1.9 °C 0.9 °C 1032.1 hPa ENE 3.2 km/h 11.3 km/h 93 % 0 mm 151 W/m2
09:59 2 °C 0.8 °C 1032.1 hPa NNE 6.4 km/h 12.9 km/h 92 % 0 mm 156 W/m2
10:03 2.1 °C 0.9 °C 1032.1 hPa NNE 6.4 km/h 14.5 km/h 92 % 0 mm 162 W/m2
10:08 2.2 °C 0.9 °C 1032.1 hPa North 4.8 km/h 11.3 km/h 91 % 0 mm 171 W/m2
10:09 2.2 °C 0.9 °C 1032.1 hPa North 6.4 km/h 11.3 km/h 91 % 0 mm 172 W/m2
10:14 2.3 °C 1 °C 1032.4 hPa NNE 6.4 km/h 11.3 km/h 91 % 0 mm 179 W/m2
10:15 2.3 °C 1 °C 1032.4 hPa NNE 6.4 km/h 11.3 km/h 91 % 0 mm 181 W/m2
10:20 2.3 °C 0.8 °C 1032.4 hPa NNE 8 km/h 12.9 km/h 90 % 0 mm 186 W/m2
10:21 2.4 °C 0.9 °C 1032.4 hPa NNE 4.8 km/h 11.3 km/h 90 % 0 mm 188 W/m2
10:26 2.5 °C 1 °C 1032.4 hPa NE 6.4 km/h 14.5 km/h 90 % 0 mm 197 W/m2
10:32 2.6 °C 1.1 °C 1032.4 hPa NNE 8 km/h 14.5 km/h 90 % 0 mm 200 W/m2
10:37 2.7 °C 1.2 °C 1032.4 hPa NNE 3.2 km/h 11.3 km/h 90 % 0 mm 207 W/m2
10:42 2.8 °C 1.2 °C 1032.4 hPa NNE 1.6 km/h 11.3 km/h 89 % 0 mm 211 W/m2
10:43 2.8 °C 1.2 °C 1032.4 hPa NNE 3.2 km/h 9.7 km/h 89 % 0 mm 213 W/m2
10:48 3 °C 1.4 °C 1032.4 hPa NE 6.4 km/h 16.1 km/h 89 % 0 mm 220 W/m2
10:53 3.1 °C 1.2 °C 1032.4 hPa NE 8 km/h 14.5 km/h 87 % 0 mm 225 W/m2
10:58 3.2 °C 1.1 °C 1032.4 hPa NE 9.7 km/h 14.5 km/h 86 % 0 mm 230 W/m2
11:00 3.2 °C 1.1 °C 1032.4 hPa NE 11.3 km/h 19.3 km/h 86 % 0 mm 230 W/m2
11:05 3.3 °C 1 °C 1032.4 hPa NE 9.7 km/h 14.5 km/h 85 % 0 mm 234 W/m2
11:10 3.3 °C 1 °C 1032.4 hPa NE 8 km/h 16.1 km/h 85 % 0 mm 237 W/m2
11:15 3.4 °C 1.1 °C 1032.4 hPa ENE 3.2 km/h 12.9 km/h 85 % 0 mm 241 W/m2
11:20 3.6 °C 1.2 °C 1032.1 hPa NE 4.8 km/h 12.9 km/h 84 % 0 mm 246 W/m2
11:21 3.7 °C 1.2 °C 1032.1 hPa NE 3.2 km/h 11.3 km/h 84 % 0 mm 248 W/m2
11:26 3.8 °C 1.2 °C 1032.1 hPa ENE 8 km/h 12.9 km/h 83 % 0 mm 250 W/m2
11:29 3.9 °C 1.3 °C 1032.1 hPa NE 6.4 km/h 11.3 km/h 83 % 0 mm 251 W/m2
11:34 4 °C 1.2 °C 1032.1 hPa NE 8 km/h 12.9 km/h 82 % 0 mm 255 W/m2
11:39 4.1 °C 1.1 °C 1032.1 hPa NE 8 km/h 16.1 km/h 81 % 0 mm 258 W/m2
11:41 4.1 °C 1.1 °C 1032.1 hPa NE 8 km/h 12.9 km/h 81 % 0 mm 258 W/m2
11:46 4.2 °C 1.1 °C 1032.1 hPa NE 9.7 km/h 14.5 km/h 80 % 0 mm 258 W/m2
11:47 4.2 °C 1.1 °C 1032.1 hPa NE 9.7 km/h 14.5 km/h 80 % 0 mm 258 W/m2
11:52 4.3 °C 1.2 °C 1032.1 hPa NE 4.8 km/h 17.7 km/h 80 % 0 mm 260 W/m2
11:53 4.3 °C 1 °C 1032.1 hPa NNE 9.7 km/h 17.7 km/h 79 % 0 mm 262 W/m2
11:58 4.4 °C 1.1 °C 1031.7 hPa ENE 8 km/h 12.9 km/h 79 % 0 mm 262 W/m2
12:03 4.6 °C 1.1 °C 1031.7 hPa ENE 6.4 km/h 11.3 km/h 78 % 0 mm 264 W/m2
12:08 4.7 °C 1 °C 1031.7 hPa ENE 9.7 km/h 17.7 km/h 77 % 0 mm 264 W/m2
12:13 4.7 °C 1 °C 1031.7 hPa ENE 11.3 km/h 19.3 km/h 77 % 0 mm 264 W/m2
12:17 4.7 °C 1 °C 1031.7 hPa ENE 9.7 km/h 14.5 km/h 77 % 0 mm 264 W/m2
12:22 4.8 °C 0.9 °C 1031.7 hPa ENE 12.9 km/h 19.3 km/h 76 % 0 mm 264 W/m2
12:29 4.9 °C 1 °C 1031.7 hPa ENE 3.2 km/h 9.7 km/h 76 % 0 mm 258 W/m2
12:34 5.1 °C 1.1 °C 1031.7 hPa East 8 km/h 11.3 km/h 75 % 0 mm 260 W/m2
12:39 5.1 °C 0.8 °C 1031.7 hPa ENE 9.7 km/h 17.7 km/h 74 % 0 mm 258 W/m2
12:40 5.1 °C 0.8 °C 1031.7 hPa ENE 9.7 km/h 17.7 km/h 74 % 0 mm 257 W/m2
12:45 5.2 °C 0.9 °C 1031.7 hPa East 8 km/h 14.5 km/h 74 % 0 mm 255 W/m2
12:51 5.2 °C 0.9 °C 1031.7 hPa ENE 8 km/h 17.7 km/h 74 % 0 mm 251 W/m2
12:52 5.2 °C 0.9 °C 1031.7 hPa East 6.4 km/h 16.1 km/h 74 % 0 mm 253 W/m2
12:57 5.2 °C 0.8 °C 1031.7 hPa East 9.7 km/h 16.1 km/h 73 % 0 mm 250 W/m2
13:02 5.2 °C 0.9 °C 1031.4 hPa East 8 km/h 14.5 km/h 74 % 0 mm 248 W/m2
13:07 5.2 °C 0.8 °C 1031.4 hPa ENE 11.3 km/h 16.1 km/h 73 % 0 mm 244 W/m2
13:12 5.2 °C 0.9 °C 1031.4 hPa ENE 9.7 km/h 14.5 km/h 74 % 0 mm 241 W/m2
13:17 5.2 °C 0.8 °C 1031 hPa ENE 9.7 km/h 20.9 km/h 73 % 0 mm 237 W/m2
13:22 5.2 °C 0.8 °C 1031 hPa ENE 9.7 km/h 14.5 km/h 73 % 0 mm 230 W/m2
13:27 5.2 °C 0.8 °C 1031 hPa ENE 11.3 km/h 17.7 km/h 73 % 0 mm 227 W/m2
13:29 5.2 °C 0.8 °C 1031 hPa ENE 11.3 km/h 17.7 km/h 73 % 0 mm 227 W/m2
13:32 5.2 °C 0.8 °C 1031 hPa ENE 11.3 km/h 24.1 km/h 73 % 0 mm 221 W/m2
13:37 5.1 °C 0.7 °C 1031 hPa ENE 9.7 km/h 14.5 km/h 73 % 0 mm 214 W/m2
13:42 5.1 °C 0.8 °C 1031 hPa ENE 9.7 km/h 16.1 km/h 74 % 0 mm 209 W/m2
13:47 5.1 °C 0.8 °C 1031 hPa ENE 9.7 km/h 16.1 km/h 74 % 0 mm 204 W/m2
13:52 5.1 °C 0.8 °C 1031 hPa ENE 9.7 km/h 17.7 km/h 74 % 0 mm 199 W/m2
13:56 5.1 °C 1.1 °C 1031 hPa East 8 km/h 16.1 km/h 75 % 0 mm 193 W/m2
14:01 5.2 °C 1.1 °C 1031 hPa East 9.7 km/h 20.9 km/h 75 % 0 mm 188 W/m2
14:06 5.1 °C 0.8 °C 1031 hPa ENE 9.7 km/h 17.7 km/h 74 % 0 mm 181 W/m2
14:11 4.9 °C 0.8 °C 1031 hPa ENE 8 km/h 17.7 km/h 75 % 0 mm 179 W/m2
14:16 4.9 °C 1 °C 1031 hPa ENE 9.7 km/h 19.3 km/h 76 % 0 mm 163 W/m2
14:21 4.8 °C 0.9 °C 1031 hPa ENE 8 km/h 12.9 km/h 76 % 0 mm 162 W/m2
14:26 4.8 °C 0.9 °C 1031 hPa ENE 12.9 km/h 19.3 km/h 76 % 0 mm 169 W/m2
14:31 4.7 °C 1 °C 1031 hPa ENE 6.4 km/h 14.5 km/h 77 % 0 mm 156 W/m2
14:36 4.7 °C 0.8 °C 1031 hPa East 11.3 km/h 17.7 km/h 76 % 0 mm 51 W/m2
14:41 4.6 °C 0.9 °C 1031 hPa East 8 km/h 12.9 km/h 77 % 0 mm 42 W/m2
14:46 4.5 °C 0.8 °C 1031 hPa ENE 8 km/h 16.1 km/h 77 % 0 mm 37 W/m2
14:51 4.4 °C 0.9 °C 1031 hPa ENE 6.4 km/h 11.3 km/h 78 % 0 mm 35 W/m2
14:59 4.2 °C 0.7 °C 1031 hPa ENE 8 km/h 12.9 km/h 78 % 0 mm 51 W/m2
15:02 4.2 °C 0.7 °C 1031 hPa ENE 8 km/h 14.5 km/h 78 % 0 mm 79 W/m2
15:08 4.1 °C 0.8 °C 1031 hPa ENE 9.7 km/h 12.9 km/h 79 % 0 mm 26 W/m2
15:11 4 °C 0.7 °C 1031 hPa ENE 6.4 km/h 11.3 km/h 79 % 0 mm 28 W/m2
15:16 3.9 °C 0.6 °C 1031 hPa ENE 8 km/h 14.5 km/h 79 % 0 mm 23 W/m2
15:20 3.8 °C 0.5 °C 1031 hPa ENE 6.4 km/h 14.5 km/h 79 % 0 mm 19 W/m2
15:25 3.8 °C 0.5 °C 1031 hPa ENE 9.7 km/h 12.9 km/h 79 % 0 mm 18 W/m2
15:30 3.7 °C 0.6 °C 1031.4 hPa ENE 6.4 km/h 11.3 km/h 80 % 0 mm 16 W/m2
15:34 3.6 °C 0.4 °C 1031 hPa ENE 8 km/h 12.9 km/h 80 % 0 mm 14 W/m2
15:40 3.4 °C 0.3 °C 1031 hPa ENE 8 km/h 12.9 km/h 80 % 0 mm 12 W/m2
15:45 3.3 °C 0.3 °C 1031.4 hPa ENE 6.4 km/h 11.3 km/h 81 % 0 mm 12 W/m2
15:50 3.3 °C 0.3 °C 1031.4 hPa ENE 4.8 km/h 11.3 km/h 81 % 0 mm 11 W/m2
15:56 3.2 °C 0.4 °C 1031.4 hPa NE 4.8 km/h 11.3 km/h 82 % 0 mm 9 W/m2
15:58 3.1 °C 0.3 °C 1031.4 hPa NE 1.6 km/h 8 km/h 82 % 0 mm 7 W/m2
16:03 3 °C 0.2 °C 1031.4 hPa ENE 3.2 km/h 8 km/h 82 % 0 mm 7 W/m2
16:08 2.9 °C 0.1 °C 1031.4 hPa NE 4.8 km/h 8 km/h 82 % 0 mm 5 W/m2
16:13 2.8 °C 0.2 °C 1031.4 hPa ENE 8 km/h 12.9 km/h 83 % 0 mm 0 W/m2
16:18 2.8 °C 0.2 °C 1031.4 hPa ENE 4.8 km/h 9.7 km/h 83 % 0 mm 0 W/m2
16:21 2.8 °C 0.2 °C 1031.4 hPa East 3.2 km/h 6.4 km/h 83 % 0 mm 0 W/m2
16:26 2.7 °C 0.1 °C 1031.4 hPa ESE 1.6 km/h 4.8 km/h 83 % 0 mm 0 W/m2
16:31 2.6 °C 0.2 °C 1031.4 hPa Calm     84 % 0 mm 0 W/m2
16:36 2.4 °C -0.1 °C 1031.4 hPa Calm     84 % 0 mm 0 W/m2
16:41 2.2 °C -0.2 °C 1031.4 hPa Calm     84 % 0 mm 0 W/m2
16:42 2.2 °C -0.2 °C 1031.4 hPa Calm     84 % 0 mm 0 W/m2
16:47 2 °C -0.4 °C 1031.4 hPa Calm     84 % 0 mm 0 W/m2
16:52 1.8 °C -0.4 °C 1031.4 hPa Calm     85 % 0 mm 0 W/m2
16:56 1.7 °C -0.6 °C 1031.4 hPa Calm     85 % 0 mm 0 W/m2
17:01 1.6 °C -0.5 °C 1031.7 hPa Calm   3.2 km/h 86 % 0 mm 0 W/m2
17:06 1.6 °C -0.3 °C 1031.7 hPa ENE 1.6 km/h 6.4 km/h 87 % 0 mm 0 W/m2
17:08 1.6 °C -0.3 °C 1031.7 hPa NE 1.6 km/h 6.4 km/h 87 % 0 mm 0 W/m2
17:13 1.6 °C -0.3 °C 1031.7 hPa Calm   3.2 km/h 87 % 0 mm 0 W/m2
17:18 1.4 °C -0.6 °C 1031.7 hPa Calm     87 % 0 mm 0 W/m2
17:21 1.4 °C -0.6 °C 1031.7 hPa Calm     87 % 0 mm 0 W/m2
17:24 1.3 °C -0.6 °C 1031.7 hPa Calm     87 % 0 mm 0 W/m2
17:29 1.3 °C -0.4 °C 1031.7 hPa NE 1.6 km/h 4.8 km/h 88 % 0 mm 0 W/m2
17:35 1.4 °C -0.4 °C 1031.7 hPa NNE 3.2 km/h 9.7 km/h 88 % 0 mm 0 W/m2
17:37 1.4 °C -0.4 °C 1031.7 hPa NNE 3.2 km/h 8 km/h 88 % 0 mm 0 W/m2
17:42 1.5 °C -0.3 °C 1031.7 hPa NE 3.2 km/h 8 km/h 88 % 0 mm 0 W/m2
17:46 1.5 °C -0.3 °C 1031.7 hPa NNE 1.6 km/h 6.4 km/h 88 % 0 mm 0 W/m2
17:51 1.4 °C -0.4 °C 1031.7 hPa ENE 1.6 km/h 8 km/h 88 % 0 mm 0 W/m2
17:56 1.4 °C -0.4 °C 1031.7 hPa Calm   1.6 km/h 88 % 0 mm 0 W/m2
17:59 1.3 °C -0.4 °C 1031.7 hPa Calm   1.6 km/h 88 % 0 mm 0 W/m2
18:04 1.2 °C -0.7 °C 1031.7 hPa East 1.6 km/h 8 km/h 87 % 0 mm 0 W/m2
18:09 1.1 °C -0.7 °C 1031.7 hPa Calm   3.2 km/h 88 % 0 mm 0 W/m2
18:14 0.9 °C -1 °C 1031.7 hPa Calm   1.6 km/h 87 % 0 mm 0 W/m2
18:15 0.9 °C -1 °C 1031.7 hPa Calm   1.6 km/h 87 % 0 mm 0 W/m2
18:20 0.7 °C -1.1 °C 1031.7 hPa Calm   3.2 km/h 88 % 0 mm 0 W/m2
18:25 0.6 °C -1.2 °C 1031.4 hPa Calm   3.2 km/h 88 % 0 mm 0 W/m2
18:30 0.6 °C -1 °C 1031.7 hPa Calm   3.2 km/h 89 % 0 mm 0 W/m2
18:31 0.6 °C -1 °C 1031.7 hPa Calm   1.6 km/h 89 % 0 mm 0 W/m2
18:36 0.3 °C -1.4 °C 1031.7 hPa Calm     88 % 0 mm 0 W/m2
18:37 0.3 °C -1.4 °C 1031.7 hPa Calm     88 % 0 mm 0 W/m2
18:42 0.1 °C -1.7 °C 1031.4 hPa Calm     88 % 0 mm 0 W/m2
18:47 -0.2 °C -1.9 °C 1031.4 hPa Calm     88 % 0 mm 0 W/m2
18:54 -0.4 °C -2.2 °C 1031.7 hPa Calm     88 % 0 mm 0 W/m2
18:59 -0.6 °C -2.2 °C 1031.7 hPa Calm     89 % 0 mm 0 W/m2
19:09 -0.8 °C -2.2 °C 1031.7 hPa Calm     90 % 0 mm 0 W/m2
19:14 -0.9 °C -2.3 °C 1031.7 hPa Calm     90 % 0 mm 0 W/m2
19:20 -1.1 °C -2.6 °C 1031.4 hPa Calm   3.2 km/h 90 % 0 mm 0 W/m2
19:25 -1.2 °C -2.6 °C 1031.7 hPa Calm   3.2 km/h 90 % 0 mm 0 W/m2
19:26 -1.2 °C -2.6 °C 1031.7 hPa Calm   3.2 km/h 90 % 0 mm 0 W/m2
19:27 -1.2 °C -2.6 °C 1031.7 hPa Calm   3.2 km/h 90 % 0 mm 0 W/m2
19:32 -1.3 °C -2.6 °C 1031.7 hPa NW 1.6 km/h 3.2 km/h 91 % 0 mm 0 W/m2
19:34 -1.4 °C -2.7 °C 1031.4 hPa Calm     91 % 0 mm 0 W/m2
19:39 -1.4 °C -2.7 °C 1031.7 hPa Calm   1.6 km/h 91 % 0 mm 0 W/m2
19:43 -1.5 °C -2.8 °C 1031.7 hPa Calm     91 % 0 mm 0 W/m2
19:48 -1.6 °C -2.9 °C 1031.7 hPa Calm   1.6 km/h 91 % 0 mm 0 W/m2
19:53 -1.6 °C -2.7 °C 1031.7 hPa Calm     92 % 0 mm 0 W/m2
19:56 -1.6 °C -2.7 °C 1031.7 hPa Calm     92 % 0 mm 0 W/m2
20:00 -1.6 °C -2.7 °C 1031.7 hPa Calm     92 % 0 mm 0 W/m2
20:01 -1.6 °C -2.7 °C 1031.7 hPa Calm     92 % 0 mm 0 W/m2
20:06 -1.8 °C -2.9 °C 1031.7 hPa Calm     92 % 0 mm 0 W/m2
20:12 -1.8 °C -2.9 °C 1031.7 hPa Calm     92 % 0 mm 0 W/m2
20:17 -1.9 °C -3 °C 1031.7 hPa Calm     92 % 0 mm 0 W/m2
20:22 -1.9 °C -3 °C 1031.7 hPa Calm   1.6 km/h 92 % 0 mm 0 W/m2
20:27 -2 °C -3.1 °C 1031.7 hPa Calm     92 % 0 mm 0 W/m2
20:32 -2.1 °C -3.1 °C 1031.7 hPa Calm   3.2 km/h 93 % 0 mm 0 W/m2
20:35 -2.1 °C -3.1 °C 1031.4 hPa Calm   6.4 km/h 93 % 0 mm 0 W/m2
20:40 -2 °C -3 °C 1031.4 hPa Calm   1.6 km/h 93 % 0 mm 0 W/m2
20:45 -2 °C -3 °C 1031.4 hPa Calm     93 % 0 mm 0 W/m2
20:51 -2.1 °C -3.1 °C 1031.4 hPa Calm     93 % 0 mm 0 W/m2
20:55 -2.1 °C -3.1 °C 1031.4 hPa Calm     93 % 0 mm 0 W/m2
21:00 -2.2 °C -3.2 °C 1031.4 hPa Calm     93 % 0 mm 0 W/m2
21:01 -2.2 °C -3.2 °C 1031.4 hPa Calm     93 % 0 mm 0 W/m2
21:06 -2.3 °C -3.3 °C 1031.4 hPa Calm   3.2 km/h 93 % 0 mm 0 W/m2
21:11 -2.3 °C -3.3 °C 1031.4 hPa SW 1.6 km/h 6.4 km/h 93 % 0 mm 0 W/m2
21:16 -2.3 °C -3.3 °C 1031.4 hPa Calm     93 % 0 mm 0 W/m2
21:21 -2.2 °C -3.1 °C 1031.4 hPa Calm     94 % 0 mm 0 W/m2
21:25 -2.2 °C -3.1 °C 1031.4 hPa SW 1.6 km/h 3.2 km/h 94 % 0 mm 0 W/m2
21:30 -2.3 °C -3.3 °C 1031.4 hPa SW 1.6 km/h 3.2 km/h 93 % 0 mm 0 W/m2
21:35 -2.3 °C -3.3 °C 1031.4 hPa Calm   1.6 km/h 93 % 0 mm 0 W/m2
21:41 -2.4 °C -3.4 °C 1031.4 hPa SW 1.6 km/h 4.8 km/h 93 % 0 mm 0 W/m2
21:46 -2.5 °C -3.5 °C 1031.4 hPa SW 3.2 km/h 6.4 km/h 93 % 0 mm 0 W/m2
21:47 -2.5 °C -3.5 °C 1031.4 hPa SW 3.2 km/h 6.4 km/h 93 % 0 mm 0 W/m2
21:51 -2.4 °C -3.2 °C 1031.4 hPa Calm     94 % 0 mm 0 W/m2
21:56 -2.4 °C -3.2 °C 1031.4 hPa Calm     94 % 0 mm 0 W/m2
22:01 -2.5 °C -3.5 °C 1031.4 hPa Calm   3.2 km/h 93 % 0 mm 0 W/m2
22:02 -2.5 °C -3.5 °C 1031.4 hPa Calm   3.2 km/h 93 % 0 mm 0 W/m2
22:07 -2.6 °C -3.6 °C 1031 hPa Calm     93 % 0 mm 0 W/m2
22:09 -2.6 °C -3.6 °C 1031.4 hPa Calm     93 % 0 mm 0 W/m2
22:14 -2.6 °C -3.4 °C 1031 hPa SW 1.6 km/h 3.2 km/h 94 % 0 mm 0 W/m2
22:17 -2.6 °C -3.4 °C 1031 hPa Calm   1.6 km/h 94 % 0 mm 0 W/m2
22:22 -2.6 °C -3.4 °C 1031 hPa Calm   1.6 km/h 94 % 0 mm 0 W/m2
22:28 -2.5 °C -3.3 °C 1031 hPa Calm     94 % 0 mm 0 W/m2
22:33 -2.5 °C -3.3 °C 1031 hPa Calm     94 % 0 mm 0 W/m2
22:38 -2.5 °C -3.3 °C 1031 hPa Calm     94 % 0 mm 0 W/m2
22:44 -2.6 °C -3.4 °C 1031 hPa Calm     94 % 0 mm 0 W/m2
22:48 -2.8 °C -3.6 °C 1031 hPa Calm     94 % 0 mm 0 W/m2
22:50 -2.8 °C -3.6 °C 1031 hPa Calm     94 % 0 mm 0 W/m2
22:55 -2.9 °C -3.9 °C 1031 hPa Calm   3.2 km/h 93 % 0 mm 0 W/m2
23:00 -3.1 °C -4.1 °C 1031 hPa SW 1.6 km/h 3.2 km/h 93 % 0 mm 0 W/m2
23:05 -3.1 °C -3.9 °C 1031 hPa SW 1.6 km/h 6.4 km/h 94 % 0 mm 0 W/m2
23:10 -3.1 °C -3.9 °C 1031 hPa SW 3.2 km/h 8 km/h 94 % 0 mm 0 W/m2
23:15 -3.1 °C -3.9 °C 1031 hPa Calm   3.2 km/h 94 % 0 mm 0 W/m2
23:19 -3.1 °C -3.9 °C 1031 hPa SW 1.6 km/h 3.2 km/h 94 % 0 mm 0 W/m2
23:24 -3 °C -3.8 °C 1030.7 hPa SW 1.6 km/h 8 km/h 94 % 0 mm 0 W/m2
23:29 -2.9 °C -3.7 °C 1030.7 hPa Calm     94 % 0 mm 0 W/m2
23:31 -2.9 °C -3.7 °C 1030.7 hPa Calm     94 % 0 mm 0 W/m2
23:36 -2.9 °C -3.7 °C 1030.7 hPa Calm     94 % 0 mm 0 W/m2
23:38 -2.9 °C -3.7 °C 1030.7 hPa Calm     94 % 0 mm 0 W/m2
23:43 -3 °C -3.8 °C 1030.7 hPa Calm     94 % 0 mm 0 W/m2
23:46 -3 °C -3.8 °C 1030.7 hPa Calm     94 % 0 mm 0 W/m2
23:47 -3 °C -3.8 °C 1030.7 hPa Calm     94 % 0 mm 0 W/m2
23:53 -3.1 °C -3.9 °C 1030.7 hPa Calm   1.6 km/h 94 % 0 mm 0 W/m2
23:55 -3.2 °C -4.1 °C 1030.7 hPa Calm     94 % 0 mm 0 W/m2
Delerius-Weather
Compliments of Weather Underground - 2.5 mb

Data updates at regular intervals.